M I D A S
Marine Information and Data Acquisition System
Tripno 1565 of the Zeeleeuw from 2008-09-12 08:00:00 to 2008-09-12 17:00:00
Back to CruiseResearch ActivitiesStationsMapUnderway DataData graphs

EquipmentUnitsComment
TimeDGPSUTC
LatitudeDGPSDM.mWGS84
LongitudeDGPSDM.mWGS84
HeadingGyrodeg 
SOGDGPSknotsSpeed over ground
COGDGPSdegCourse over ground
DepthEcho soundermeters200 kHz
Missing or incorrect values are displayed as -999
Navigation data collected by the RV Zeeleeuw from 2008-09-12 08:00:00 to 2008-09-12 17:00:00
                                                                                    Next 1000 lines
Time Latitude Longitude Heading SOG COG Depth
2008-09-12 08:00:20 51°33.41 2°54.046 321.1 0.8 299 -999
2008-09-12 08:00:30 51°33.411 2°54.043 321.1 0.8 299 -999
2008-09-12 08:00:40 51°33.412 2°54.04 321.1 0.8 299 -999
2008-09-12 08:00:50 51°33.414 2°54.036 321.1 0.8 299 -999
2008-09-12 08:01:00 51°33.415 2°54.033 322.1 0.8 299 -999
2008-09-12 08:01:10 51°33.416 2°54.029 322.1 0.8 299 -999
2008-09-12 08:01:20 51°33.417 2°54.026 322.1 0.8 299 -999
2008-09-12 08:01:30 51°33.418 2°54.022 322.1 0.8 299 -999
2008-09-12 08:01:40 51°33.419 2°54.019 322.1 0.8 299 -999
2008-09-12 08:01:50 51°33.421 2°54.015 322.1 0.8 299 -999
2008-09-12 08:02:00 51°33.422 2°54.011 319.8 0.9 297 -999
2008-09-12 08:02:10 51°33.423 2°54.008 319.8 0.9 297 -999
2008-09-12 08:02:20 51°33.424 2°54.004 319.8 0.9 297 -999
2008-09-12 08:02:30 51°33.425 2°54.001 319.8 0.9 297 -999
2008-09-12 08:02:40 51°33.427 2°53.998 319.8 0.9 297 -999
2008-09-12 08:02:50 51°33.428 2°53.994 319.8 0.9 297 -999
2008-09-12 08:03:00 51°33.43 2°53.991 323.5 0.9 309 -999
2008-09-12 08:03:10 51°33.431 2°53.988 323.5 0.9 309 -999
2008-09-12 08:03:20 51°33.433 2°53.985 323.5 0.9 309 -999
2008-09-12 08:03:30 51°33.434 2°53.983 323.5 0.9 309 -999
2008-09-12 08:03:40 51°33.436 2°53.979 323.5 0.9 309 -999
2008-09-12 08:03:50 51°33.438 2°53.976 323.5 0.9 309 -999
2008-09-12 08:04:00 51°33.439 2°53.973 324 0.9 306 -999
2008-09-12 08:04:10 51°33.441 2°53.97 324 0.9 306 -999
2008-09-12 08:04:20 51°33.442 2°53.966 324 0.9 306 -999
2008-09-12 08:04:30 51°33.443 2°53.963 324 0.9 306 -999
2008-09-12 08:04:40 51°33.445 2°53.959 324 0.9 306 -999
2008-09-12 08:04:50 51°33.446 2°53.956 324 0.9 306 -999
2008-09-12 08:05:00 51°33.447 2°53.952 318.1 0.8 304 -999
2008-09-12 08:05:10 51°33.448 2°53.95 318.1 0.8 304 -999
2008-09-12 08:05:20 51°33.449 2°53.947 318.1 0.8 304 -999
2008-09-12 08:05:30 51°33.45 2°53.946 318.1 0.8 304 -999
2008-09-12 08:05:40 51°33.45 2°53.943 318.1 0.8 304 -999
2008-09-12 08:05:50 51°33.45 2°53.942 318.1 0.8 304 -999
2008-09-12 08:06:00 51°33.45 2°53.94 320.8 0.4 278 -999
2008-09-12 08:06:10 51°33.45 2°53.938 320.8 0.4 278 -999
2008-09-12 08:06:20 51°33.45 2°53.936 320.8 0.4 278 -999
2008-09-12 08:06:30 51°33.45 2°53.935 320.8 0.4 278 -999
2008-09-12 08:06:40 51°33.45 2°53.934 320.8 0.4 278 -999
2008-09-12 08:06:50 51°33.45 2°53.933 320.8 0.4 278 -999
2008-09-12 08:07:00 51°33.449 2°53.932 320.6 0.29 228 -999
2008-09-12 08:07:10 51°33.449 2°53.931 320.6 0.29 228 -999
2008-09-12 08:07:20 51°33.448 2°53.931 320.6 0.29 228 -999
2008-09-12 08:07:30 51°33.448 2°53.931 320.6 0.29 228 -999
2008-09-12 08:07:40 51°33.447 2°53.931 320.6 0.29 228 -999
2008-09-12 08:07:50 51°33.447 2°53.931 320.6 0.29 228 -999
2008-09-12 08:08:00 51°33.446 2°53.932 327.5 0.29 172 -999
2008-09-12 08:08:10 51°33.446 2°53.932 327.5 0.29 172 -999
2008-09-12 08:08:20 51°33.445 2°53.932 327.5 0.29 172 -999
2008-09-12 08:08:30 51°33.444 2°53.933 327.5 0.29 172 -999
2008-09-12 08:08:40 51°33.443 2°53.934 327.5 0.29 172 -999
2008-09-12 08:08:50 51°33.442 2°53.934 327.5 0.29 172 -999
2008-09-12 08:09:00 51°33.442 2°53.935 338.1 0.4 150 -999
2008-09-12 08:09:10 51°33.441 2°53.936 338.1 0.4 150 -999
2008-09-12 08:09:20 51°33.439 2°53.937 338.1 0.4 150 -999
2008-09-12 08:09:30 51°33.438 2°53.938 338.1 0.4 150 -999
2008-09-12 08:09:40 51°33.437 2°53.94 338.1 0.4 150 -999
2008-09-12 08:09:50 51°33.436 2°53.941 338.1 0.4 150 -999
2008-09-12 08:10:00 51°33.435 2°53.942 350.5 0.5 147 -999
2008-09-12 08:10:10 51°33.434 2°53.943 350.5 0.5 147 -999
2008-09-12 08:10:20 51°33.432 2°53.945 350.5 0.5 147 -999
2008-09-12 08:10:30 51°33.431 2°53.946 350.5 0.5 147 -999
2008-09-12 08:10:40 51°33.43 2°53.948 350.5 0.5 147 -999
2008-09-12 08:10:50 51°33.428 2°53.949 350.5 0.5 147 -999
2008-09-12 08:11:00 51°33.427 2°53.951 5 0.59 148 -999
2008-09-12 08:11:10 51°33.426 2°53.952 5 0.59 148 -999
2008-09-12 08:11:20 51°33.424 2°53.954 5 0.59 148 -999
2008-09-12 08:11:30 51°33.423 2°53.956 5 0.59 148 -999
2008-09-12 08:11:40 51°33.422 2°53.957 5 0.59 148 -999
2008-09-12 08:11:50 51°33.42 2°53.959 5 0.59 148 -999
2008-09-12 08:12:00 51°33.419 2°53.96 16.1 0.5 146 -999
2008-09-12 08:12:10 51°33.417 2°53.962 16.1 0.5 146 -999
2008-09-12 08:12:20 51°33.416 2°53.963 16.1 0.5 146 -999
2008-09-12 08:12:30 51°33.414 2°53.965 16.1 0.5 146 -999
2008-09-12 08:12:40 51°33.413 2°53.967 16.1 0.5 146 -999
2008-09-12 08:12:50 51°33.412 2°53.968 16.1 0.5 146 -999
2008-09-12 08:13:00 51°33.41 2°53.97 19.5 0.59 144 -999
2008-09-12 08:13:10 51°33.409 2°53.972 19.5 0.59 144 -999
2008-09-12 08:13:20 51°33.408 2°53.973 19.5 0.59 144 -999
2008-09-12 08:13:30 51°33.407 2°53.975 19.5 0.59 144 -999
2008-09-12 08:13:40 51°33.407 2°53.978 19.5 0.59 144 -999
2008-09-12 08:13:50 51°33.408 2°53.982 19.5 0.59 144 -999
2008-09-12 08:14:00 51°33.41 2°53.987 31.1 1.5 57 -999
2008-09-12 08:14:10 51°33.412 2°53.994 31.1 1.5 57 -999
2008-09-12 08:14:20 51°33.414 2°54.003 31.1 1.5 57 -999
2008-09-12 08:14:30 51°33.416 2°54.014 31.1 1.5 57 -999
2008-09-12 08:14:40 51°33.416 2°54.026 31.1 1.5 57 -999
2008-09-12 08:14:50 51°33.414 2°54.039 31.1 1.5 57 -999
2008-09-12 08:15:00 51°33.411 2°54.053 95.5 3.29 115 -999
2008-09-12 08:15:10 51°33.406 2°54.066 95.5 3.29 115 -999
2008-09-12 08:15:20 51°33.4 2°54.08 95.5 3.29 115 -999
2008-09-12 08:15:30 51°33.393 2°54.094 95.5 3.29 115 -999
2008-09-12 08:15:40 51°33.387 2°54.109 95.5 3.29 115 -999
2008-09-12 08:15:50 51°33.38 2°54.123 95.5 3.29 115 -999
2008-09-12 08:16:00 51°33.373 2°54.138 118.2 4.09 127 -999
2008-09-12 08:16:10 51°33.367 2°54.153 118.2 4.09 127 -999
2008-09-12 08:16:20 51°33.36 2°54.168 118.2 4.09 127 -999
2008-09-12 08:16:30 51°33.354 2°54.183 118.2 4.09 127 -999
2008-09-12 08:16:40 51°33.347 2°54.199 118.2 4.09 127 -999
2008-09-12 08:16:50 51°33.34 2°54.213 118.2 4.09 127 -999
2008-09-12 08:17:00 51°33.334 2°54.226 114 3.6 125 -999
2008-09-12 08:17:10 51°33.328 2°54.239 114 3.6 125 -999
2008-09-12 08:17:20 51°33.322 2°54.251 114 3.6 125 -999
2008-09-12 08:17:30 51°33.317 2°54.263 114 3.6 125 -999
2008-09-12 08:17:40 51°33.312 2°54.275 114 3.6 125 -999
2008-09-12 08:17:50 51°33.307 2°54.285 114 3.6 125 -999
2008-09-12 08:18:00 51°33.302 2°54.296 113 2.89 126 -999
2008-09-12 08:18:10 51°33.298 2°54.306 113 2.89 126 -999
2008-09-12 08:18:20 51°33.293 2°54.316 113 2.89 126 -999
2008-09-12 08:18:30 51°33.288 2°54.326 113 2.89 126 -999
2008-09-12 08:18:40 51°33.283 2°54.335 113 2.89 126 -999
2008-09-12 08:18:50 51°33.277 2°54.344 113 2.89 126 -999
2008-09-12 08:19:00 51°33.272 2°54.352 121.7 2.6 135 -999
2008-09-12 08:19:10 51°33.267 2°54.36 121.7 2.6 135 -999
2008-09-12 08:19:20 51°33.261 2°54.368 121.7 2.6 135 -999
2008-09-12 08:19:30 51°33.256 2°54.376 121.7 2.6 135 -999
2008-09-12 08:19:40 51°33.251 2°54.383 121.7 2.6 135 -999
2008-09-12 08:19:50 51°33.245 2°54.39 121.7 2.6 135 -999
2008-09-12 08:20:00 51°33.24 2°54.397 131.6 2.5 141 -999
2008-09-12 08:20:10 51°33.234 2°54.404 131.6 2.5 141 -999
2008-09-12 08:20:20 51°33.229 2°54.41 131.6 2.5 141 -999
2008-09-12 08:20:30 51°33.223 2°54.416 131.6 2.5 141 -999
2008-09-12 08:20:40 51°33.217 2°54.422 131.6 2.5 141 -999
2008-09-12 08:20:50 51°33.212 2°54.428 131.6 2.5 141 -999
2008-09-12 08:21:00 51°33.206 2°54.433 140.9 2.39 148 -999
2008-09-12 08:21:10 51°33.2 2°54.438 140.9 2.39 148 -999
2008-09-12 08:21:20 51°33.195 2°54.443 140.9 2.39 148 -999
2008-09-12 08:21:30 51°33.189 2°54.449 140.9 2.39 148 -999
2008-09-12 08:21:40 51°33.184 2°54.454 140.9 2.39 148 -999
2008-09-12 08:21:50 51°33.179 2°54.46 140.9 2.39 148 -999
2008-09-12 08:22:00 51°33.174 2°54.465 138.4 2.2 146 -999
2008-09-12 08:22:10 51°33.169 2°54.471 138.4 2.2 146 -999
2008-09-12 08:22:20 51°33.164 2°54.476 138.4 2.2 146 -999
2008-09-12 08:22:30 51°33.16 2°54.482 138.4 2.2 146 -999
2008-09-12 08:22:40 51°33.156 2°54.488 138.4 2.2 146 -999
2008-09-12 08:22:50 51°33.152 2°54.493 138.4 2.2 146 -999
2008-09-12 08:23:00 51°33.148 2°54.498 128 1.8 138 -999
2008-09-12 08:23:10 51°33.144 2°54.503 128 1.8 138 -999
2008-09-12 08:23:20 51°33.14 2°54.508 128 1.8 138 -999
2008-09-12 08:23:30 51°33.136 2°54.513 128 1.8 138 -999
2008-09-12 08:23:40 51°33.133 2°54.518 128 1.8 138 -999
2008-09-12 08:23:50 51°33.129 2°54.522 128 1.8 138 -999
2008-09-12 08:24:00 51°33.125 2°54.526 134.1 1.6 146 -999
2008-09-12 08:24:10 51°33.122 2°54.53 134.1 1.6 146 -999
2008-09-12 08:24:20 51°33.118 2°54.534 134.1 1.6 146 -999
2008-09-12 08:24:30 51°33.115 2°54.538 134.1 1.6 146 -999
2008-09-12 08:24:40 51°33.111 2°54.541 134.1 1.6 146 -999
2008-09-12 08:24:50 51°33.108 2°54.544 134.1 1.6 146 -999
2008-09-12 08:25:00 51°33.105 2°54.548 144.3 1.39 150 -999
2008-09-12 08:25:10 51°33.101 2°54.55 144.3 1.39 150 -999
2008-09-12 08:25:20 51°33.098 2°54.553 144.3 1.39 150 -999
2008-09-12 08:25:30 51°33.095 2°54.555 144.3 1.39 150 -999
2008-09-12 08:25:40 51°33.092 2°54.558 144.3 1.39 150 -999
2008-09-12 08:25:50 51°33.089 2°54.56 144.3 1.39 150 -999
2008-09-12 08:26:00 51°33.086 2°54.562 156.5 1.19 154 -999
2008-09-12 08:26:10 51°33.083 2°54.564 156.5 1.19 154 -999
2008-09-12 08:26:20 51°33.08 2°54.566 156.5 1.19 154 -999
2008-09-12 08:26:30 51°33.077 2°54.568 156.5 1.19 154 -999
2008-09-12 08:26:40 51°33.074 2°54.57 156.5 1.19 154 -999
2008-09-12 08:26:50 51°33.072 2°54.571 156.5 1.19 154 -999
2008-09-12 08:27:00 51°33.069 2°54.573 163.5 1 159 -999
2008-09-12 08:27:10 51°33.067 2°54.575 163.5 1 159 -999
2008-09-12 08:27:20 51°33.064 2°54.577 163.5 1 159 -999
2008-09-12 08:27:30 51°33.062 2°54.579 163.5 1 159 -999
2008-09-12 08:27:40 51°33.06 2°54.581 163.5 1 159 -999
2008-09-12 08:27:50 51°33.057 2°54.583 163.5 1 159 -999
2008-09-12 08:28:00 51°33.055 2°54.585 171.1 0.9 157 -999
2008-09-12 08:28:10 51°33.052 2°54.586 171.1 0.9 157 -999
2008-09-12 08:28:20 51°33.05 2°54.588 171.1 0.9 157 -999
2008-09-12 08:28:30 51°33.048 2°54.589 171.1 0.9 157 -999
2008-09-12 08:28:40 51°33.046 2°54.591 171.1 0.9 157 -999
2008-09-12 08:28:50 51°33.044 2°54.593 171.1 0.9 157 -999
2008-09-12 08:29:00 51°33.042 2°54.594 178.3 0.8 154 -999
2008-09-12 08:29:10 51°33.039 2°54.596 178.3 0.8 154 -999
2008-09-12 08:29:20 51°33.038 2°54.597 178.3 0.8 154 -999
2008-09-12 08:29:30 51°33.036 2°54.599 178.3 0.8 154 -999
2008-09-12 08:29:40 51°33.034 2°54.599 178.3 0.8 154 -999
2008-09-12 08:29:50 51°33.032 2°54.601 178.3 0.8 154 -999
2008-09-12 08:30:00 51°33.03 2°54.603 184 0.8 152 -999
2008-09-12 08:30:10 51°33.027 2°54.605 184 0.8 152 -999
2008-09-12 08:30:20 51°33.026 2°54.607 184 0.8 152 -999
2008-09-12 08:30:30 51°33.024 2°54.609 184 0.8 152 -999
2008-09-12 08:30:40 51°33.022 2°54.611 184 0.8 152 -999
2008-09-12 08:30:50 51°33.02 2°54.613 184 0.8 152 -999
2008-09-12 08:31:00 51°33.019 2°54.615 186.8 0.9 135 -999
2008-09-12 08:31:10 51°33.017 2°54.618 186.8 0.9 135 -999
2008-09-12 08:31:20 51°33.015 2°54.621 186.8 0.9 135 -999
2008-09-12 08:31:30 51°33.014 2°54.624 186.8 0.9 135 -999
2008-09-12 08:31:40 51°33.012 2°54.626 186.8 0.9 135 -999
2008-09-12 08:31:50 51°33.011 2°54.629 186.8 0.9 135 -999
2008-09-12 08:32:00 51°33.01 2°54.631 182 0.8 130 -999
2008-09-12 08:32:10 51°33.009 2°54.635 182 0.8 130 -999
2008-09-12 08:32:20 51°33.007 2°54.638 182 0.8 130 -999
2008-09-12 08:32:30 51°33.006 2°54.64 182 0.8 130 -999
2008-09-12 08:32:40 51°33.005 2°54.643 182 0.8 130 -999
2008-09-12 08:32:50 51°33.004 2°54.646 182 0.8 130 -999
2008-09-12 08:33:00 51°33.002 2°54.649 176.3 0.69 120 -999
2008-09-12 08:33:10 51°33.001 2°54.652 176.3 0.69 120 -999
2008-09-12 08:33:20 51°33 2°54.654 176.3 0.69 120 -999
2008-09-12 08:33:30 51°32.999 2°54.657 176.3 0.69 120 -999
2008-09-12 08:33:40 51°32.998 2°54.66 176.3 0.69 120 -999
2008-09-12 08:33:50 51°32.997 2°54.663 176.3 0.69 120 -999
2008-09-12 08:34:00 51°32.995 2°54.666 168.5 1.19 139 -999
2008-09-12 08:34:10 51°32.992 2°54.67 168.5 1.19 139 -999
2008-09-12 08:34:20 51°32.987 2°54.675 168.5 1.19 139 -999
2008-09-12 08:34:30 51°32.983 2°54.68 168.5 1.19 139 -999
2008-09-12 08:34:40 51°32.977 2°54.686 168.5 1.19 139 -999
2008-09-12 08:34:50 51°32.972 2°54.695 168.5 1.19 139 -999
2008-09-12 08:35:00 51°32.967 2°54.705 127.7 3 129 -999
2008-09-12 08:35:10 51°32.962 2°54.716 127.7 3 129 -999
2008-09-12 08:35:20 51°32.959 2°54.729 127.7 3 129 -999
2008-09-12 08:35:30 51°32.957 2°54.743 127.7 3 129 -999
2008-09-12 08:35:40 51°32.957 2°54.756 127.7 3 129 -999
2008-09-12 08:35:50 51°32.958 2°54.769 127.7 3 129 -999
2008-09-12 08:36:00 51°32.961 2°54.781 61.2 2.89 66 -999
2008-09-12 08:36:10 51°32.966 2°54.792 61.2 2.89 66 -999
2008-09-12 08:36:20 51°32.971 2°54.8 61.2 2.89 66 -999
2008-09-12 08:36:30 51°32.977 2°54.807 61.2 2.89 66 -999
2008-09-12 08:36:40 51°32.984 2°54.811 61.2 2.89 66 -999
2008-09-12 08:36:50 51°32.991 2°54.814 61.2 2.89 66 -999
2008-09-12 08:37:00 51°32.997 2°54.814 357.5 2.6   -999
2008-09-12 08:37:10 51°33.005 2°54.812 357.5 2.6   -999
2008-09-12 08:37:20 51°33.013 2°54.81 357.5 2.6   -999
2008-09-12 08:37:30 51°33.021 2°54.806 357.5 2.6   -999
2008-09-12 08:37:40 51°33.03 2°54.803 357.5 2.6   -999
2008-09-12 08:37:50 51°33.04 2°54.799 357.5 2.6   -999
2008-09-12 08:38:00 51°33.05 2°54.797 348 3.7 354 -999
2008-09-12 08:38:10 51°33.06 2°54.796 348 3.7 354 -999
2008-09-12 08:38:20 51°33.071 2°54.796 348 3.7 354 -999
2008-09-12 08:38:30 51°33.082 2°54.795 348 3.7 354 -999
2008-09-12 08:38:40 51°33.093 2°54.795 348 3.7 354 -999
2008-09-12 08:38:50 51°33.105 2°54.793 348 3.7 354 -999
2008-09-12 08:39:00 51°33.116 2°54.791 351.6 4.09 353 -999
2008-09-12 08:39:10 51°33.127 2°54.789 351.6 4.09 353 -999
2008-09-12 08:39:20 51°33.138 2°54.787 351.6 4.09 353 -999
2008-09-12 08:39:30 51°33.146 2°54.784 351.6 4.09 353 -999
2008-09-12 08:39:40 51°33.154 2°54.782 351.6 4.09 353 -999
2008-09-12 08:39:50 51°33.161 2°54.779 351.6 4.09 353 -999
2008-09-12 08:40:00 51°33.168 2°54.776 339.8 2.29 344 -999
2008-09-12 08:40:10 51°33.173 2°54.773 339.8 2.29 344 -999
2008-09-12 08:40:20 51°33.178 2°54.771 339.8 2.29 344 -999
2008-09-12 08:40:30 51°33.182 2°54.769 339.8 2.29 344 -999
2008-09-12 08:40:40 51°33.186 2°54.768 339.8 2.29 344 -999
2008-09-12 08:40:50 51°33.19 2°54.766 339.8 2.29 344 -999
2008-09-12 08:41:00 51°33.194 2°54.765 335.8 1.3 347 -999
2008-09-12 08:41:10 51°33.197 2°54.764 335.8 1.3 347 -999
2008-09-12 08:41:20 51°33.2 2°54.763 335.8 1.3 347 -999
2008-09-12 08:41:30 51°33.203 2°54.762 335.8 1.3 347 -999
2008-09-12 08:41:40 51°33.205 2°54.762 335.8 1.3 347 -999
2008-09-12 08:41:50 51°33.207 2°54.761 335.8 1.3 347 -999
2008-09-12 08:42:00 51°33.21 2°54.761 333.8 0.8 354 -999
2008-09-12 08:42:10 51°33.212 2°54.761 333.8 0.8 354 -999
2008-09-12 08:42:20 51°33.214 2°54.761 333.8 0.8 354 -999
2008-09-12 08:42:30 51°33.216 2°54.761 333.8 0.8 354 -999
2008-09-12 08:42:40 51°33.217 2°54.762 333.8 0.8 354 -999
2008-09-12 08:42:50 51°33.218 2°54.762 333.8 0.8 354 -999
2008-09-12 08:43:00 51°33.22 2°54.762 333.8 0.5 13 -999
2008-09-12 08:43:10 51°33.221 2°54.762 333.8 0.5 13 -999
2008-09-12 08:43:20 51°33.223 2°54.763 333.8 0.5 13 -999
2008-09-12 08:43:30 51°33.224 2°54.764 333.8 0.5 13 -999
2008-09-12 08:43:40 51°33.225 2°54.764 333.8 0.5 13 -999
2008-09-12 08:43:50 51°33.225 2°54.765 333.8 0.5 13 -999
2008-09-12 08:44:00 51°33.226 2°54.767 333.8 0.29 43 -999
2008-09-12 08:44:10 51°33.227 2°54.768 333.8 0.29 43 -999
2008-09-12 08:44:20 51°33.227 2°54.77 333.8 0.29 43 -999
2008-09-12 08:44:30 51°33.228 2°54.772 333.8 0.29 43 -999
2008-09-12 08:44:40 51°33.228 2°54.773 333.8 0.29 43 -999
2008-09-12 08:44:50 51°33.228 2°54.775 333.8 0.29 43 -999
2008-09-12 08:45:00 51°33.229 2°54.778 334.1 0.5 84 -999
2008-09-12 08:45:10 51°33.229 2°54.78 334.1 0.5 84 -999
2008-09-12 08:45:20 51°33.229 2°54.783 334.1 0.5 84 -999
2008-09-12 08:45:30 51°33.229 2°54.786 334.1 0.5 84 -999
2008-09-12 08:45:40 51°33.229 2°54.789 334.1 0.5 84 -999
2008-09-12 08:45:50 51°33.229 2°54.792 334.1 0.5 84 -999
2008-09-12 08:46:00 51°33.229 2°54.795 339 0.69 99 -999
2008-09-12 08:46:10 51°33.228 2°54.798 339 0.69 99 -999
2008-09-12 08:46:20 51°33.228 2°54.801 339 0.69 99 -999
2008-09-12 08:46:30 51°33.227 2°54.804 339 0.69 99 -999
2008-09-12 08:46:40 51°33.227 2°54.807 339 0.69 99 -999
2008-09-12 08:46:50 51°33.226 2°54.81 339 0.69 99 -999
2008-09-12 08:47:00 51°33.226 2°54.814 347.8 0.69 103 -999
2008-09-12 08:47:10 51°33.226 2°54.817 347.8 0.69 103 -999
2008-09-12 08:47:20 51°33.225 2°54.82 347.8 0.69 103 -999
2008-09-12 08:47:30 51°33.224 2°54.824 347.8 0.69 103 -999
2008-09-12 08:47:40 51°33.224 2°54.827 347.8 0.69 103 -999
2008-09-12 08:47:50 51°33.223 2°54.83 347.8 0.69 103 -999
2008-09-12 08:48:00 51°33.223 2°54.833 354.1 0.8 102 -999
2008-09-12 08:48:10 51°33.223 2°54.837 354.1 0.8 102 -999
2008-09-12 08:48:20 51°33.222 2°54.84 354.1 0.8 102 -999
2008-09-12 08:48:30 51°33.222 2°54.844 354.1 0.8 102 -999
2008-09-12 08:48:40 51°33.222 2°54.848 354.1 0.8 102 -999
2008-09-12 08:48:50 51°33.221 2°54.851 354.1 0.8 102 -999
2008-09-12 08:49:00 51°33.22 2°54.854 0.6 0.8 104 -999
2008-09-12 08:49:10 51°33.219 2°54.857 0.6 0.8 104 -999
2008-09-12 08:49:20 51°33.218 2°54.861 0.6 0.8 104 -999
2008-09-12 08:49:30 51°33.217 2°54.865 0.6 0.8 104 -999
2008-09-12 08:49:40 51°33.217 2°54.869 0.6 0.8 104 -999
2008-09-12 08:49:50 51°33.216 2°54.873 0.6 0.8 104 -999
2008-09-12 08:50:00 51°33.216 2°54.876 4.2 0.9 103 -999
2008-09-12 08:50:10 51°33.216 2°54.88 4.2 0.9 103 -999
2008-09-12 08:50:20 51°33.215 2°54.884 4.2 0.9 103 -999
2008-09-12 08:50:30 51°33.214 2°54.888 4.2 0.9 103 -999
2008-09-12 08:50:40 51°33.214 2°54.892 4.2 0.9 103 -999
2008-09-12 08:50:50 51°33.213 2°54.896 4.2 0.9 103 -999
2008-09-12 08:51:00 51°33.213 2°54.899 8.9 0.8 105 -999
2008-09-12 08:51:10 51°33.212 2°54.903 8.9 0.8 105 -999
2008-09-12 08:51:20 51°33.211 2°54.907 8.9 0.8 105 -999
2008-09-12 08:51:30 51°33.211 2°54.911 8.9 0.8 105 -999
2008-09-12 08:51:40 51°33.21 2°54.914 8.9 0.8 105 -999
2008-09-12 08:51:50 51°33.21 2°54.918 8.9 0.8 105 -999
2008-09-12 08:52:00 51°33.209 2°54.922 7.7 0.9 101 -999
2008-09-12 08:52:10 51°33.208 2°54.925 7.7 0.9 101 -999
2008-09-12 08:52:20 51°33.208 2°54.928 7.7 0.9 101 -999
2008-09-12 08:52:30 51°33.207 2°54.932 7.7 0.9 101 -999
2008-09-12 08:52:40 51°33.207 2°54.936 7.7 0.9 101 -999
2008-09-12 08:52:50 51°33.206 2°54.939 7.7 0.9 101 -999
2008-09-12 08:53:00 51°33.206 2°54.943 3 0.9 99 -999
2008-09-12 08:53:10 51°33.205 2°54.947 3 0.9 99 -999
2008-09-12 08:53:20 51°33.205 2°54.951 3 0.9 99 -999
2008-09-12 08:53:30 51°33.205 2°54.954 3 0.9 99 -999
2008-09-12 08:53:40 51°33.205 2°54.958 3 0.9 99 -999
2008-09-12 08:53:50 51°33.205 2°54.961 3 0.9 99 -999
2008-09-12 08:54:00 51°33.205 2°54.965 359.6 0.8 93 -999
2008-09-12 08:54:10 51°33.205 2°54.968 359.6 0.8 93 -999
2008-09-12 08:54:20 51°33.205 2°54.972 359.6 0.8 93 -999
2008-09-12 08:54:30 51°33.205 2°54.975 359.6 0.8 93 -999
2008-09-12 08:54:40 51°33.205 2°54.979 359.6 0.8 93 -999
2008-09-12 08:54:50 51°33.206 2°54.983 359.6 0.8 93 -999
2008-09-12 08:55:00 51°33.206 2°54.986 356.6 0.8 92 -999
2008-09-12 08:55:10 51°33.205 2°54.99 356.6 0.8 92 -999
2008-09-12 08:55:20 51°33.205 2°54.994 356.6 0.8 92 -999
2008-09-12 08:55:30 51°33.205 2°54.997 356.6 0.8 92 -999
2008-09-12 08:55:40 51°33.205 2°55 356.6 0.8 92 -999
2008-09-12 08:55:50 51°33.205 2°55.004 356.6 0.8 92 -999
2008-09-12 08:56:00 51°33.205 2°55.007 355.1 0.69 91 -999
2008-09-12 08:56:10 51°33.205 2°55.011 355.1 0.69 91 -999
2008-09-12 08:56:20 51°33.205 2°55.014 355.1 0.69 91 -999
2008-09-12 08:56:30 51°33.207 2°55.018 355.1 0.69 91 -999
2008-09-12 08:56:40 51°33.209 2°55.02 355.1 0.69 91 -999
2008-09-12 08:56:50 51°33.211 2°55.022 355.1 0.69 91 -999
2008-09-12 08:57:00 51°33.213 2°55.023 336.8 0.9 16 -999
2008-09-12 08:57:10 51°33.216 2°55.024 336.8 0.9 16 -999
2008-09-12 08:57:20 51°33.219 2°55.025 336.8 0.9 16 -999
2008-09-12 08:57:30 51°33.222 2°55.025 336.8 0.9 16 -999
2008-09-12 08:57:40 51°33.224 2°55.024 336.8 0.9 16 -999
2008-09-12 08:57:50 51°33.227 2°55.022 336.8 0.9 16 -999
2008-09-12 08:58:00 51°33.229 2°55.021 312.3 1 334 -999
2008-09-12 08:58:10 51°33.232 2°55.019 312.3 1 334 -999
2008-09-12 08:58:20 51°33.235 2°55.016 312.3 1 334 -999
2008-09-12 08:58:30 51°33.238 2°55.013 312.3 1 334 -999
2008-09-12 08:58:40 51°33.24 2°55.01 312.3 1 334 -999
2008-09-12 08:58:50 51°33.243 2°55.006 312.3 1 334 -999
2008-09-12 08:59:00 51°33.247 2°55.002 305.8 1.39 320 -999
2008-09-12 08:59:10 51°33.25 2°54.997 305.8 1.39 320 -999
2008-09-12 08:59:20 51°33.253 2°54.993 305.8 1.39 320 -999
2008-09-12 08:59:30 51°33.256 2°54.988 305.8 1.39 320 -999
2008-09-12 08:59:40 51°33.26 2°54.982 305.8 1.39 320 -999
2008-09-12 08:59:50 51°33.263 2°54.977 305.8 1.39 320 -999
2008-09-12 09:00:00 51°33.267 2°54.971 302.3 1.69 312 -999
2008-09-12 09:00:10 51°33.269 2°54.965 302.3 1.69 312 -999
2008-09-12 09:00:20 51°33.273 2°54.959 302.3 1.69 312 -999
2008-09-12 09:00:30 51°33.276 2°54.953 302.3 1.69 312 -999
2008-09-12 09:00:40 51°33.279 2°54.947 302.3 1.69 312 -999
2008-09-12 09:00:50 51°33.283 2°54.94 302.3 1.69 312 -999
2008-09-12 09:01:00 51°33.286 2°54.934 299.6 1.8 308 -999
2008-09-12 09:01:10 51°33.289 2°54.927 299.6 1.8 308 -999
2008-09-12 09:01:20 51°33.292 2°54.921 299.6 1.8 308 -999
2008-09-12 09:01:30 51°33.295 2°54.914 299.6 1.8 308 -999
2008-09-12 09:01:40 51°33.299 2°54.907 299.6 1.8 308 -999
2008-09-12 09:01:50 51°33.302 2°54.9 299.6 1.8 308 -999
2008-09-12 09:02:00 51°33.306 2°54.893 299.6 2 310 -999
2008-09-12 09:02:10 51°33.309 2°54.886 299.6 2 310 -999
2008-09-12 09:02:20 51°33.313 2°54.879 299.6 2 310 -999
2008-09-12 09:02:30 51°33.317 2°54.873 299.6 2 310 -999
2008-09-12 09:02:40 51°33.321 2°54.866 299.6 2 310 -999
2008-09-12 09:02:50 51°33.326 2°54.861 299.6 2 310 -999
2008-09-12 09:03:00 51°33.331 2°54.856 317.3 2.2 330 -999
2008-09-12 09:03:10 51°33.336 2°54.852 317.3 2.2 330 -999
2008-09-12 09:03:20 51°33.342 2°54.848 317.3 2.2 330 -999
2008-09-12 09:03:30 51°33.347 2°54.845 317.3 2.2 330 -999
2008-09-12 09:03:40 51°33.353 2°54.842 317.3 2.2 330 -999
2008-09-12 09:03:50 51°33.358 2°54.84 317.3 2.2 330 -999
2008-09-12 09:04:00 51°33.364 2°54.838 330.3 2 346 -999
2008-09-12 09:04:10 51°33.369 2°54.836 330.3 2 346 -999
2008-09-12 09:04:20 51°33.374 2°54.834 330.3 2 346 -999
2008-09-12 09:04:30 51°33.38 2°54.832 330.3 2 346 -999
2008-09-12 09:04:40 51°33.384 2°54.831 330.3 2 346 -999
2008-09-12 09:04:50 51°33.389 2°54.83 330.3 2 346 -999
2008-09-12 09:05:00 51°33.394 2°54.828 330.1 1.69 350 -999
2008-09-12 09:05:10 51°33.398 2°54.827 330.1 1.69 350 -999
2008-09-12 09:05:20 51°33.403 2°54.826 330.1 1.69 350 -999
2008-09-12 09:05:30 51°33.408 2°54.825 330.1 1.69 350 -999
2008-09-12 09:05:40 51°33.412 2°54.823 330.1 1.69 350 -999
2008-09-12 09:05:50 51°33.417 2°54.822 330.1 1.69 350 -999
2008-09-12 09:06:00 51°33.421 2°54.821 327.1 1.6 348 -999
2008-09-12 09:06:10 51°33.425 2°54.819 327.1 1.6 348 -999
2008-09-12 09:06:20 51°33.429 2°54.818 327.1 1.6 348 -999
2008-09-12 09:06:30 51°33.434 2°54.816 327.1 1.6 348 -999
2008-09-12 09:06:40 51°33.438 2°54.815 327.1 1.6 348 -999
2008-09-12 09:06:50 51°33.442 2°54.814 327.1 1.6 348 -999
2008-09-12 09:07:00 51°33.446 2°54.812 324.3 1.5 348 -999
2008-09-12 09:07:10 51°33.45 2°54.811 324.3 1.5 348 -999
2008-09-12 09:07:20 51°33.454 2°54.81 324.3 1.5 348 -999
2008-09-12 09:07:30 51°33.459 2°54.808 324.3 1.5 348 -999
2008-09-12 09:07:40 51°33.462 2°54.807 324.3 1.5 348 -999
2008-09-12 09:07:50 51°33.467 2°54.805 324.3 1.5 348 -999
2008-09-12 09:08:00 51°33.471 2°54.804 323.8 1.5 347 -999
2008-09-12 09:08:10 51°33.475 2°54.802 323.8 1.5 347 -999
2008-09-12 09:08:20 51°33.48 2°54.8 323.8 1.5 347 -999
2008-09-12 09:08:30 51°33.483 2°54.799 323.8 1.5 347 -999
2008-09-12 09:08:40 51°33.487 2°54.798 323.8 1.5 347 -999
2008-09-12 09:08:50 51°33.491 2°54.798 323.8 1.5 347 -999
2008-09-12 09:09:00 51°33.496 2°54.797 331 1.5 358 -999
2008-09-12 09:09:10 51°33.5 2°54.797 331 1.5 358 -999
2008-09-12 09:09:20 51°33.505 2°54.798 331 1.5 358 -999
2008-09-12 09:09:30 51°33.509 2°54.798 331 1.5 358 -999
2008-09-12 09:09:40 51°33.513 2°54.8 331 1.5 358 -999
2008-09-12 09:09:50 51°33.518 2°54.802 331 1.5 358 -999
2008-09-12 09:10:00 51°33.523 2°54.805 355.8 1.8 21 -999
2008-09-12 09:10:10 51°33.528 2°54.808 355.8 1.8 21 -999
2008-09-12 09:10:20 51°33.532 2°54.812 355.8 1.8 21 -999
2008-09-12 09:10:30 51°33.536 2°54.816 355.8 1.8 21 -999
2008-09-12 09:10:40 51°33.541 2°54.82 355.8 1.8 21 -999
2008-09-12 09:10:50 51°33.546 2°54.824 355.8 1.8 21 -999
2008-09-12 09:11:00 51°33.551 2°54.828 5.2 2 25 -999
2008-09-12 09:11:10 51°33.556 2°54.832 5.2 2 25 -999
2008-09-12 09:11:20 51°33.56 2°54.836 5.2 2 25 -999
2008-09-12 09:11:30 51°33.565 2°54.839 5.2 2 25 -999
2008-09-12 09:11:40 51°33.571 2°54.843 5.2 2 25 -999
2008-09-12 09:11:50 51°33.576 2°54.846 5.2 2 25 -999
2008-09-12 09:12:00 51°33.58 2°54.849 357.1 1.89 21 -999
2008-09-12 09:12:10 51°33.585 2°54.851 357.1 1.89 21 -999
2008-09-12 09:12:20 51°33.59 2°54.854 357.1 1.89 21 -999
2008-09-12 09:12:30 51°33.594 2°54.857 357.1 1.89 21 -999
2008-09-12 09:12:40 51°33.598 2°54.859 357.1 1.89 21 -999
2008-09-12 09:12:50 51°33.602 2°54.862 357.1 1.89 21 -999
2008-09-12 09:13:00 51°33.605 2°54.865 349.6 1.3 27 -999
2008-09-12 09:13:10 51°33.609 2°54.868 349.6 1.3 27 -999
2008-09-12 09:13:20 51°33.611 2°54.87 349.6 1.3 27 -999
2008-09-12 09:13:30 51°33.614 2°54.873 349.6 1.3 27 -999
2008-09-12 09:13:40 51°33.617 2°54.876 349.6 1.3 27 -999
2008-09-12 09:13:50 51°33.619 2°54.878 349.6 1.3 27 -999
2008-09-12 09:14:00 51°33.622 2°54.881 342.5 1 37 -999
2008-09-12 09:14:10 51°33.624 2°54.884 342.5 1 37 -999
2008-09-12 09:14:20 51°33.626 2°54.887 342.5 1 37 -999
2008-09-12 09:14:30 51°33.628 2°54.889 342.5 1 37 -999
2008-09-12 09:14:40 51°33.63 2°54.893 342.5 1 37 -999
2008-09-12 09:14:50 51°33.632 2°54.896 342.5 1 37 -999
2008-09-12 09:15:00 51°33.633 2°54.899 339.6 0.9 50 -999
2008-09-12 09:15:10 51°33.635 2°54.902 339.6 0.9 50 -999
2008-09-12 09:15:20 51°33.636 2°54.905 339.6 0.9 50 -999
2008-09-12 09:15:30 51°33.638 2°54.909 339.6 0.9 50 -999
2008-09-12 09:15:40 51°33.639 2°54.912 339.6 0.9 50 -999
2008-09-12 09:15:50 51°33.641 2°54.916 339.6 0.9 50 -999
2008-09-12 09:16:00 51°33.642 2°54.92 339.3 1 63 -999
2008-09-12 09:16:10 51°33.643 2°54.923 339.3 1 63 -999
2008-09-12 09:16:20 51°33.644 2°54.927 339.3 1 63 -999
2008-09-12 09:16:30 51°33.645 2°54.93 339.3 1 63 -999
2008-09-12 09:16:40 51°33.647 2°54.935 339.3 1 63 -999
2008-09-12 09:16:50 51°33.648 2°54.938 339.3 1 63 -999
2008-09-12 09:17:00 51°33.649 2°54.942 339.1 0.9 67 -999
2008-09-12 09:17:10 51°33.65 2°54.946 339.1 0.9 67 -999
2008-09-12 09:17:20 51°33.651 2°54.95 339.1 0.9 67 -999
2008-09-12 09:17:30 51°33.651 2°54.954 339.1 0.9 67 -999
2008-09-12 09:17:40 51°33.653 2°54.959 339.1 0.9 67 -999
2008-09-12 09:17:50 51°33.654 2°54.962 339.1 0.9 67 -999
2008-09-12 09:18:00 51°33.658 2°54.964 338.3 1.5 13 -999
2008-09-12 09:18:10 51°33.663 2°54.963 338.3 1.5 13 -999
2008-09-12 09:18:20 51°33.669 2°54.958 338.3 1.5 13 -999
2008-09-12 09:18:30 51°33.675 2°54.949 338.3 1.5 13 -999
2008-09-12 09:18:40 51°33.679 2°54.936 338.3 1.5 13 -999
2008-09-12 09:18:50 51°33.68 2°54.921 338.3 1.5 13 -999
2008-09-12 09:19:00 51°33.678 2°54.905 266.6 4 254 -999
2008-09-12 09:19:10 51°33.67 2°54.886 266.6 4 254 -999
2008-09-12 09:19:20 51°33.661 2°54.871 266.6 4 254 -999
2008-09-12 09:19:30 51°33.648 2°54.851 266.6 4 254 -999
2008-09-12 09:19:40 51°33.634 2°54.828 266.6 4 254 -999
2008-09-12 09:19:50 51°33.616 2°54.798 266.6 4 254 -999
2008-09-12 09:20:00 51°33.599 2°54.768 229.6 9.3 229 -999
2008-09-12 09:20:10 51°33.582 2°54.735 229.6 9.3 229 -999
2008-09-12 09:20:20 51°33.566 2°54.7 229.6 9.3 229 -999
2008-09-12 09:20:30 51°33.55 2°54.662 229.6 9.3 229 -999
2008-09-12 09:20:40 51°33.533 2°54.622 229.6 9.3 229 -999
2008-09-12 09:20:50 51°33.516 2°54.581 229.6 9.3 229 -999
2008-09-12 09:21:00 51°33.5 2°54.538 238.5 11.4 238 -999
2008-09-12 09:21:10 51°33.483 2°54.493 238.5 11.4 238 -999
2008-09-12 09:21:20 51°33.467 2°54.449 238.5 11.4 238 -999
2008-09-12 09:21:30 51°33.45 2°54.404 238.5 11.4 238 -999
2008-09-12 09:21:40 51°33.436 2°54.364 238.5 11.4 238 -999
2008-09-12 09:21:50 51°33.419 2°54.314 238.5 11.4 238 -999
2008-09-12 09:22:00 51°33.403 2°54.269 240.5 11.59 241 -999
2008-09-12 09:22:10 51°33.386 2°54.225 240.5 11.59 241 -999
2008-09-12 09:22:20 51°33.369 2°54.181 240.5 11.59 241 -999
2008-09-12 09:22:30 51°33.354 2°54.141 240.5 11.59 241 -999
2008-09-12 09:22:40 51°33.335 2°54.093 240.5 11.59 241 -999
2008-09-12 09:22:50 51°33.319 2°54.048 240.5 11.59 241 -999
2008-09-12 09:23:00 51°33.302 2°54.004 240.1 11.59 239 -999
2008-09-12 09:23:10 51°33.286 2°53.959 240.1 11.59 239 -999
2008-09-12 09:23:20 51°33.27 2°53.915 240.1 11.59 239 -999
2008-09-12 09:23:30 51°33.254 2°53.87 240.1 11.59 239 -999
2008-09-12 09:23:40 51°33.237 2°53.825 240.1 11.59 239 -999
2008-09-12 09:23:50 51°33.221 2°53.78 240.1 11.59 239 -999
2008-09-12 09:24:00 51°33.205 2°53.736 240.9 11.59 240 -999
2008-09-12 09:24:10 51°33.191 2°53.695 240.9 11.59 240 -999
2008-09-12 09:24:20 51°33.175 2°53.645 240.9 11.59 240 -999
2008-09-12 09:24:30 51°33.159 2°53.6 240.9 11.59 240 -999
2008-09-12 09:24:40 51°33.143 2°53.555 240.9 11.59 240 -999
2008-09-12 09:24:50 51°33.128 2°53.51 240.9 11.59 240 -999
2008-09-12 09:25:00 51°33.112 2°53.464 241 11.59 243 -999
2008-09-12 09:25:10 51°33.097 2°53.419 241 11.59 243 -999
2008-09-12 09:25:20 51°33.084 2°53.377 241 11.59 243 -999
2008-09-12 09:25:30 51°33.068 2°53.327 241 11.59 243 -999
2008-09-12 09:25:40 51°33.053 2°53.281 241 11.59 243 -999
2008-09-12 09:25:50 51°33.039 2°53.235 241 11.59 243 -999
2008-09-12 09:26:00 51°33.023 2°53.189 242.8 11.59 242 -999
2008-09-12 09:26:10 51°33.009 2°53.143 242.8 11.59 242 -999
2008-09-12 09:26:20 51°32.994 2°53.097 242.8 11.59 242 -999
2008-09-12 09:26:30 51°32.978 2°53.052 242.8 11.59 242 -999
2008-09-12 09:26:40 51°32.965 2°53.01 242.8 11.59 242 -999
2008-09-12 09:26:50 51°32.95 2°52.965 242.8 11.59 242 -999
2008-09-12 09:27:00 51°32.933 2°52.914 242.3 11.59 244 -999
2008-09-12 09:27:10 51°32.92 2°52.874 242.3 11.59 244 -999
2008-09-12 09:27:20 51°32.903 2°52.823 242.3 11.59 244 -999
2008-09-12 09:27:30 51°32.888 2°52.778 242.3 11.59 244 -999
2008-09-12 09:27:40 51°32.874 2°52.737 242.3 11.59 244 -999
2008-09-12 09:27:50 51°32.858 2°52.687 242.3 11.59 244 -999
2008-09-12 09:28:00 51°32.843 2°52.642 242 11.59 241 -999
2008-09-12 09:28:10 51°32.827 2°52.596 242 11.59 241 -999
2008-09-12 09:28:20 51°32.812 2°52.551 242 11.59 241 -999
2008-09-12 09:28:30 51°32.799 2°52.51 242 11.59 241 -999
2008-09-12 09:28:40 51°32.782 2°52.461 242 11.59 241 -999
2008-09-12 09:28:50 51°32.766 2°52.415 242 11.59 241 -999
2008-09-12 09:29:00 51°32.751 2°52.37 241.8 11.59 241 -999
2008-09-12 09:29:10 51°32.736 2°52.325 241.8 11.59 241 -999
2008-09-12 09:29:20 51°32.722 2°52.284 241.8 11.59 241 -999
2008-09-12 09:29:30 51°32.705 2°52.234 241.8 11.59 241 -999
2008-09-12 09:29:40 51°32.689 2°52.19 241.8 11.59 241 -999
2008-09-12 09:29:50 51°32.673 2°52.146 241.8 11.59 241 -999
2008-09-12 09:30:00 51°32.658 2°52.106 238.6 11.59 239 -999
2008-09-12 09:30:10 51°32.64 2°52.058 238.6 11.59 239 -999
2008-09-12 09:30:20 51°32.623 2°52.014 238.6 11.59 239 -999
2008-09-12 09:30:30 51°32.606 2°51.97 238.6 11.59 239 -999
2008-09-12 09:30:40 51°32.59 2°51.926 238.6 11.59 239 -999
2008-09-12 09:30:50 51°32.573 2°51.882 238.6 11.59 239 -999
2008-09-12 09:31:00 51°32.557 2°51.838 239.5 11.5 239 -999
2008-09-12 09:31:10 51°32.541 2°51.794 239.5 11.5 239 -999
2008-09-12 09:31:20 51°32.525 2°51.749 239.5 11.5 239 -999
2008-09-12 09:31:30 51°32.512 2°51.708 239.5 11.5 239 -999
2008-09-12 09:31:40 51°32.495 2°51.659 239.5 11.5 239 -999
2008-09-12 09:31:50 51°32.479 2°51.614 239.5 11.5 239 -999
2008-09-12 09:32:00 51°32.464 2°51.569 241.1 11.59 243 -999
2008-09-12 09:32:10 51°32.449 2°51.523 241.1 11.59 243 -999
2008-09-12 09:32:20 51°32.434 2°51.477 241.1 11.59 243 -999
2008-09-12 09:32:30 51°32.42 2°51.432 241.1 11.59 243 -999
2008-09-12 09:32:40 51°32.405 2°51.391 241.1 11.59 243 -999
2008-09-12 09:32:50 51°32.388 2°51.343 241.1 11.59 243 -999
2008-09-12 09:33:00 51°32.371 2°51.299 239.9 11.5 240 -999
2008-09-12 09:33:10 51°32.355 2°51.255 239.9 11.5 240 -999
2008-09-12 09:33:20 51°32.339 2°51.211 239.9 11.5 240 -999
2008-09-12 09:33:30 51°32.324 2°51.171 239.9 11.5 240 -999
2008-09-12 09:33:40 51°32.306 2°51.123 239.9 11.5 240 -999
2008-09-12 09:33:50 51°32.29 2°51.078 239.9 11.5 240 -999
2008-09-12 09:34:00 51°32.274 2°51.034 239.5 11.5 240 -999
2008-09-12 09:34:10 51°32.258 2°50.988 239.5 11.5 240 -999
2008-09-12 09:34:20 51°32.243 2°50.943 239.5 11.5 240 -999
2008-09-12 09:34:30 51°32.229 2°50.897 239.5 11.5 240 -999
2008-09-12 09:34:40 51°32.216 2°50.856 239.5 11.5 240 -999
2008-09-12 09:34:50 51°32.201 2°50.81 239.5 11.5 240 -999
2008-09-12 09:35:00 51°32.185 2°50.76 243 11.5 244 -999
2008-09-12 09:35:10 51°32.17 2°50.714 243 11.5 244 -999
2008-09-12 09:35:20 51°32.155 2°50.67 243 11.5 244 -999
2008-09-12 09:35:30 51°32.141 2°50.629 243 11.5 244 -999
2008-09-12 09:35:40 51°32.124 2°50.58 243 11.5 244 -999
2008-09-12 09:35:50 51°32.109 2°50.535 243 11.5 244 -999
2008-09-12 09:36:00 51°32.094 2°50.49 241 11.59 242 -999
2008-09-12 09:36:10 51°32.079 2°50.444 241 11.59 242 -999
2008-09-12 09:36:20 51°32.065 2°50.404 241 11.59 242 -999
2008-09-12 09:36:30 51°32.049 2°50.354 241 11.59 242 -999
2008-09-12 09:36:40 51°32.034 2°50.309 241 11.59 242 -999
2008-09-12 09:36:50 51°32.019 2°50.264 241 11.59 242 -999
2008-09-12 09:37:00 51°32.005 2°50.223 242.5 11.59 242 -999
2008-09-12 09:37:10 51°31.991 2°50.178 242.5 11.59 242 -999
2008-09-12 09:37:20 51°31.974 2°50.128 242.5 11.59 242 -999
2008-09-12 09:37:30 51°31.959 2°50.083 242.5 11.59 242 -999
2008-09-12 09:37:40 51°31.945 2°50.043 242.5 11.59 242 -999
2008-09-12 09:37:50 51°31.927 2°49.995 242.5 11.59 242 -999
2008-09-12 09:38:00 51°31.911 2°49.952 239.1 11.4 238 -999
2008-09-12 09:38:10 51°31.895 2°49.909 239.1 11.4 238 -999
2008-09-12 09:38:20 51°31.88 2°49.87 239.1 11.4 238 -999
2008-09-12 09:38:30 51°31.864 2°49.826 239.1 11.4 238 -999
2008-09-12 09:38:40 51°31.848 2°49.782 239.1 11.4 238 -999
2008-09-12 09:38:50 51°31.831 2°49.733 239.1 11.4 238 -999
2008-09-12 09:39:00 51°31.818 2°49.692 241.4 11.5 243 -999
2008-09-12 09:39:10 51°31.803 2°49.647 241.4 11.5 243 -999
2008-09-12 09:39:20 51°31.789 2°49.602 241.4 11.5 243 -999
2008-09-12 09:39:30 51°31.774 2°49.557 241.4 11.5 243 -999
2008-09-12 09:39:40 51°31.758 2°49.513 241.4 11.5 243 -999
2008-09-12 09:39:50 51°31.741 2°49.47 241.4 11.5 243 -999
2008-09-12 09:40:00 51°31.723 2°49.428 236.5 11.5 236 -999
2008-09-12 09:40:10 51°31.705 2°49.386 236.5 11.5 236 -999
2008-09-12 09:40:20 51°31.688 2°49.344 236.5 11.5 236 -999
2008-09-12 09:40:30 51°31.671 2°49.301 236.5 11.5 236 -999
2008-09-12 09:40:40 51°31.654 2°49.258 236.5 11.5 236 -999
2008-09-12 09:40:50 51°31.636 2°49.217 236.5 11.5 236 -999
2008-09-12 09:41:00 51°31.617 2°49.176 234.8 11.4 234 -999
2008-09-12 09:41:10 51°31.599 2°49.135 234.8 11.4 234 -999
2008-09-12 09:41:20 51°31.581 2°49.093 234.8 11.4 234 -999
2008-09-12 09:41:30 51°31.564 2°49.051 234.8 11.4 234 -999
2008-09-12 09:41:40 51°31.545 2°49.004 234.8 11.4 234 -999
2008-09-12 09:41:50 51°31.53 2°48.966 234.8 11.4 234 -999
2008-09-12 09:42:00 51°31.511 2°48.92 236.6 11.3 237 -999
2008-09-12 09:42:10 51°31.493 2°48.878 236.6 11.3 237 -999
2008-09-12 09:42:20 51°31.478 2°48.84 236.6 11.3 237 -999
2008-09-12 09:42:30 51°31.46 2°48.798 236.6 11.3 237 -999
2008-09-12 09:42:40 51°31.442 2°48.756 236.6 11.3 237 -999
2008-09-12 09:42:50 51°31.423 2°48.71 236.6 11.3 237 -999
2008-09-12 09:43:00 51°31.405 2°48.669 236 11.3 236 -999
2008-09-12 09:43:10 51°31.389 2°48.631 236 11.3 236 -999
2008-09-12 09:43:20 51°31.372 2°48.589 236 11.3 236 -999
2008-09-12 09:43:30 51°31.355 2°48.546 236 11.3 236 -999
2008-09-12 09:43:40 51°31.337 2°48.499 236 11.3 236 -999
2008-09-12 09:43:50 51°31.32 2°48.456 236 11.3 236 -999
2008-09-12 09:44:00 51°31.304 2°48.418 236.9 11.3 240 -999
2008-09-12 09:44:10 51°31.288 2°48.375 236.9 11.3 240 -999
2008-09-12 09:44:20 51°31.271 2°48.327 236.9 11.3 240 -999
2008-09-12 09:44:30 51°31.254 2°48.284 236.9 11.3 240 -999
2008-09-12 09:44:40 51°31.237 2°48.241 236.9 11.3 240 -999
2008-09-12 09:44:50 51°31.222 2°48.203 236.9 11.3 240 -999
2008-09-12 09:45:00 51°31.205 2°48.161 237 11.3 236 -999
2008-09-12 09:45:10 51°31.185 2°48.116 237 11.3 236 -999
2008-09-12 09:45:20 51°31.17 2°48.078 237 11.3 236 -999
2008-09-12 09:45:30 51°31.152 2°48.036 237 11.3 236 -999
2008-09-12 09:45:40 51°31.135 2°47.995 237 11.3 236 -999
2008-09-12 09:45:50 51°31.115 2°47.949 237 11.3 236 -999
2008-09-12 09:46:00 51°31.1 2°47.912 235.8 11.3 236 -999
2008-09-12 09:46:10 51°31.082 2°47.87 235.8 11.3 236 -999
2008-09-12 09:46:20 51°31.065 2°47.828 235.8 11.3 236 -999
2008-09-12 09:46:30 51°31.048 2°47.786 235.8 11.3 236 -999
2008-09-12 09:46:40 51°31.029 2°47.74 235.8 11.3 236 -999
2008-09-12 09:46:50 51°31.014 2°47.703 235.8 11.3 236 -999
2008-09-12 09:47:00 51°30.997 2°47.661 237.3 11.3 237 -999
2008-09-12 09:47:10 51°30.98 2°47.619 237.3 11.3 237 -999
2008-09-12 09:47:20 51°30.961 2°47.573 237.3 11.3 237 -999
2008-09-12 09:47:30 51°30.944 2°47.53 237.3 11.3 237 -999
2008-09-12 09:47:40 51°30.93 2°47.491 237.3 11.3 237 -999
2008-09-12 09:47:50 51°30.913 2°47.443 237.3 11.3 237 -999
2008-09-12 09:48:00 51°30.897 2°47.4 239.5 11.3 240 -999
2008-09-12 09:48:10 51°30.881 2°47.357 239.5 11.3 240 -999
2008-09-12 09:48:20 51°30.865 2°47.314 239.5 11.3 240 -999
2008-09-12 09:48:30 51°30.849 2°47.271 239.5 11.3 240 -999
2008-09-12 09:48:40 51°30.832 2°47.229 239.5 11.3 240 -999
2008-09-12 09:48:50 51°30.815 2°47.187 239.5 11.3 240 -999
2008-09-12 09:49:00 51°30.799 2°47.144 238.8 11.19 238 -999
2008-09-12 09:49:10 51°30.783 2°47.102 238.8 11.19 238 -999
2008-09-12 09:49:20 51°30.765 2°47.06 238.8 11.19 238 -999
2008-09-12 09:49:30 51°30.749 2°47.018 238.8 11.19 238 -999
2008-09-12 09:49:40 51°30.732 2°46.976 238.8 11.19 238 -999
2008-09-12 09:49:50 51°30.717 2°46.933 238.8 11.19 238 -999
2008-09-12 09:50:00 51°30.701 2°46.89 239 11.19 239 -999
2008-09-12 09:50:10 51°30.684 2°46.848 239 11.19 239 -999
2008-09-12 09:50:20 51°30.667 2°46.806 239 11.19 239 -999
2008-09-12 09:50:30 51°30.65 2°46.765 239 11.19 239 -999
2008-09-12 09:50:40 51°30.633 2°46.724 239 11.19 239 -999
2008-09-12 09:50:50 51°30.616 2°46.682 239 11.19 239 -999
2008-09-12 09:51:00 51°30.599 2°46.641 236 11.19 235 -999
2008-09-12 09:51:10 51°30.581 2°46.6 236 11.19 235 -999
2008-09-12 09:51:20 51°30.564 2°46.558 236 11.19 235 -999
2008-09-12 09:51:30 51°30.548 2°46.517 236 11.19 235 -999
2008-09-12 09:51:40 51°30.53 2°46.475 236 11.19 235 -999
2008-09-12 09:51:50 51°30.514 2°46.434 236 11.19 235 -999
2008-09-12 09:52:00 51°30.497 2°46.392 236.5 11.19 236 -999
2008-09-12 09:52:10 51°30.48 2°46.351 236.5 11.19 236 -999
2008-09-12 09:52:20 51°30.463 2°46.309 236.5 11.19 236 -999
2008-09-12 09:52:30 51°30.446 2°46.267 236.5 11.19 236 -999
2008-09-12 09:52:40 51°30.43 2°46.225 236.5 11.19 236 -999
2008-09-12 09:52:50 51°30.413 2°46.183 236.5 11.19 236 -999
2008-09-12 09:53:00 51°30.398 2°46.14 238 11.19 239 -999
2008-09-12 09:53:10 51°30.382 2°46.097 238 11.19 239 -999
2008-09-12 09:53:20 51°30.367 2°46.053 238 11.19 239 -999
2008-09-12 09:53:30 51°30.351 2°46.01 238 11.19 239 -999
2008-09-12 09:53:40 51°30.336 2°45.966 238 11.19 239 -999
2008-09-12 09:53:50 51°30.32 2°45.923 238 11.19 239 -999
2008-09-12 09:54:00 51°30.305 2°45.879 239.3 11.3 241 -999
2008-09-12 09:54:10 51°30.289 2°45.836 239.3 11.3 241 -999
2008-09-12 09:54:20 51°30.273 2°45.794 239.3 11.3 241 -999
2008-09-12 09:54:30 51°30.256 2°45.751 239.3 11.3 241 -999
2008-09-12 09:54:40 51°30.241 2°45.714 239.3 11.3 241 -999
2008-09-12 09:54:50 51°30.222 2°45.668 239.3 11.3 241 -999
2008-09-12 09:55:00 51°30.205 2°45.626 235.4 11.19 236 -999
2008-09-12 09:55:10 51°30.187 2°45.585 235.4 11.19 236 -999
2008-09-12 09:55:20 51°30.17 2°45.543 235.4 11.19 236 -999
2008-09-12 09:55:30 51°30.153 2°45.501 235.4 11.19 236 -999
2008-09-12 09:55:40 51°30.136 2°45.459 235.4 11.19 236 -999
2008-09-12 09:55:50 51°30.119 2°45.417 235.4 11.19 236 -999
2008-09-12 09:56:00 51°30.102 2°45.375 236 11.19 238 -999
2008-09-12 09:56:10 51°30.086 2°45.334 236 11.19 238 -999
2008-09-12 09:56:20 51°30.069 2°45.292 236 11.19 238 -999
2008-09-12 09:56:30 51°30.052 2°45.25 236 11.19 238 -999
2008-09-12 09:56:40 51°30.036 2°45.207 236 11.19 238 -999
2008-09-12 09:56:50 51°30.021 2°45.164 236 11.19 238 -999
2008-09-12 09:57:00 51°30.005 2°45.121 238.9 11.19 241 -999
2008-09-12 09:57:10 51°29.989 2°45.077 238.9 11.19 241 -999
2008-09-12 09:57:20 51°29.973 2°45.034 238.9 11.19 241 -999
2008-09-12 09:57:30 51°29.956 2°44.992 238.9 11.19 241 -999
2008-09-12 09:57:40 51°29.94 2°44.95 238.9 11.19 241 -999
2008-09-12 09:57:50 51°29.923 2°44.908 238.9 11.19 241 -999
2008-09-12 09:58:00 51°29.906 2°44.867 236.4 11.09 236 -999
2008-09-12 09:58:10 51°29.889 2°44.825 236.4 11.09 236 -999
2008-09-12 09:58:20 51°29.873 2°44.783 236.4 11.09 236 -999
2008-09-12 09:58:30 51°29.857 2°44.741 236.4 11.09 236 -999
2008-09-12 09:58:40 51°29.842 2°44.698 236.4 11.09 236 -999
2008-09-12 09:58:50 51°29.827 2°44.655 236.4 11.09 236 -999
2008-09-12 09:59:00 51°29.811 2°44.612 239.1 11 239 -999
2008-09-12 09:59:10 51°29.796 2°44.569 239.1 11 239 -999
2008-09-12 09:59:20 51°29.78 2°44.527 239.1 11 239 -999
2008-09-12 09:59:30 51°29.765 2°44.483 239.1 11 239 -999
2008-09-12 09:59:40 51°29.75 2°44.441 239.1 11 239 -999
2008-09-12 09:59:50 51°29.734 2°44.398 239.1 11 239 -999
2008-09-12 10:00:00 51°29.718 2°44.356 238.8 11.09 238 -999
2008-09-12 10:00:10 51°29.703 2°44.313 238.8 11.09 238 -999
2008-09-12 10:00:20 51°29.687 2°44.271 238.8 11.09 238 -999
2008-09-12 10:00:30 51°29.672 2°44.228 238.8 11.09 238 -999
2008-09-12 10:00:40 51°29.657 2°44.191 238.8 11.09 238 -999
2008-09-12 10:00:50 51°29.638 2°44.147 238.8 11.09 238 -999
2008-09-12 10:01:00 51°29.621 2°44.106 235 11.09 236 -999
2008-09-12 10:01:10 51°29.605 2°44.069 235 11.09 236 -999
2008-09-12 10:01:20 51°29.587 2°44.023 235 11.09 236 -999
2008-09-12 10:01:30 51°29.57 2°43.983 235 11.09 236 -999
2008-09-12 10:01:40 51°29.555 2°43.946 235 11.09 236 -999
2008-09-12 10:01:50 51°29.536 2°43.901 235 11.09 236 -999
2008-09-12 10:02:00 51°29.52 2°43.86 236.5 11.09 236 -999
2008-09-12 10:02:10 51°29.503 2°43.818 236.5 11.09 236 -999
2008-09-12 10:02:20 51°29.487 2°43.777 236.5 11.09 236 -999
2008-09-12 10:02:30 51°29.47 2°43.735 236.5 11.09 236 -999
2008-09-12 10:02:40 51°29.454 2°43.694 236.5 11.09 236 -999
2008-09-12 10:02:50 51°29.437 2°43.652 236.5 11.09 236 -999
2008-09-12 10:03:00 51°29.421 2°43.61 237.5 11.19 239 -999
2008-09-12 10:03:10 51°29.406 2°43.568 237.5 11.19 239 -999
2008-09-12 10:03:20 51°29.391 2°43.524 237.5 11.19 239 -999
2008-09-12 10:03:30 51°29.376 2°43.481 237.5 11.19 239 -999
2008-09-12 10:03:40 51°29.361 2°43.438 237.5 11.19 239 -999
2008-09-12 10:03:50 51°29.347 2°43.4 237.5 11.19 239 -999
2008-09-12 10:04:00 51°29.33 2°43.352 239 11.09 241 -999
2008-09-12 10:04:10 51°29.315 2°43.309 239 11.09 241 -999
2008-09-12 10:04:20 51°29.299 2°43.267 239 11.09 241 -999
2008-09-12 10:04:30 51°29.282 2°43.225 239 11.09 241 -999
2008-09-12 10:04:40 51°29.268 2°43.187 239 11.09 241 -999
2008-09-12 10:04:50 51°29.25 2°43.141 239 11.09 241 -999
2008-09-12 10:05:00 51°29.234 2°43.098 238.3 11.19 239 -999
2008-09-12 10:05:10 51°29.219 2°43.056 238.3 11.19 239 -999
2008-09-12 10:05:20 51°29.204 2°43.013 238.3 11.19 239 -999
2008-09-12 10:05:30 51°29.188 2°42.97 238.3 11.19 239 -999
2008-09-12 10:05:40 51°29.172 2°42.928 238.3 11.19 239 -999
2008-09-12 10:05:50 51°29.156 2°42.885 238.3 11.19 239 -999
2008-09-12 10:06:00 51°29.139 2°42.844 236.6 11.09 238 -999
2008-09-12 10:06:10 51°29.122 2°42.803 236.6 11.09 238 -999
2008-09-12 10:06:20 51°29.105 2°42.762 236.6 11.09 238 -999
2008-09-12 10:06:30 51°29.087 2°42.721 236.6 11.09 238 -999
2008-09-12 10:06:40 51°29.07 2°42.68 236.6 11.09 238 -999
2008-09-12 10:06:50 51°29.053 2°42.639 236.6 11.09 238 -999
2008-09-12 10:07:00 51°29.037 2°42.602 235.3 11.19 236 -999
2008-09-12 10:07:10 51°29.019 2°42.556 235.3 11.19 236 -999
2008-09-12 10:07:20 51°29.002 2°42.515 235.3 11.19 236 -999
2008-09-12 10:07:30 51°28.985 2°42.474 235.3 11.19 236 -999
2008-09-12 10:07:40 51°28.968 2°42.432 235.3 11.19 236 -999
2008-09-12 10:07:50 51°28.952 2°42.39 235.3 11.19 236 -999
2008-09-12 10:08:00 51°28.935 2°42.349 236.4 11.19 237 -999
2008-09-12 10:08:10 51°28.919 2°42.306 236.4 11.19 237 -999
2008-09-12 10:08:20 51°28.903 2°42.263 236.4 11.19 237 -999
2008-09-12 10:08:30 51°28.887 2°42.221 236.4 11.19 237 -999
2008-09-12 10:08:40 51°28.871 2°42.178 236.4 11.19 237 -999
2008-09-12 10:08:50 51°28.854 2°42.136 236.4 11.19 237 -999
2008-09-12 10:09:00 51°28.839 2°42.093 239.1 11.19 240 -999
2008-09-12 10:09:10 51°28.824 2°42.049 239.1 11.19 240 -999
2008-09-12 10:09:20 51°28.809 2°42.006 239.1 11.19 240 -999
2008-09-12 10:09:30 51°28.794 2°41.962 239.1 11.19 240 -999
2008-09-12 10:09:40 51°28.779 2°41.919 239.1 11.19 240 -999
2008-09-12 10:09:50 51°28.764 2°41.875 239.1 11.19 240 -999
2008-09-12 10:10:00 51°28.749 2°41.832 239.4 11.19 242 -999
2008-09-12 10:10:10 51°28.734 2°41.787 239.4 11.19 242 -999
2008-09-12 10:10:20 51°28.719 2°41.743 239.4 11.19 242 -999
2008-09-12 10:10:30 51°28.705 2°41.7 239.4 11.19 242 -999
2008-09-12 10:10:40 51°28.69 2°41.656 239.4 11.19 242 -999
2008-09-12 10:10:50 51°28.675 2°41.613 239.4 11.19 242 -999
2008-09-12 10:11:00 51°28.66 2°41.568 240.8 11.3 243 -999
2008-09-12 10:11:10 51°28.646 2°41.524 240.8 11.3 243 -999
2008-09-12 10:11:20 51°28.632 2°41.479 240.8 11.3 243 -999
2008-09-12 10:11:30 51°28.618 2°41.435 240.8 11.3 243 -999
2008-09-12 10:11:40 51°28.605 2°41.39 240.8 11.3 243 -999
2008-09-12 10:11:50 51°28.591 2°41.345 240.8 11.3 243 -999
2008-09-12 10:12:00 51°28.578 2°41.3 242.3 11.19 244 -999
2008-09-12 10:12:10 51°28.563 2°41.256 242.3 11.19 244 -999
2008-09-12 10:12:20 51°28.55 2°41.212 242.3 11.19 244 -999
2008-09-12 10:12:30 51°28.535 2°41.168 242.3 11.19 244 -999
2008-09-12 10:12:40 51°28.521 2°41.123 242.3 11.19 244 -999
2008-09-12 10:12:50 51°28.507 2°41.079 242.3 11.19 244 -999
2008-09-12 10:13:00 51°28.493 2°41.035 241.3 11.19 243 -999
2008-09-12 10:13:10 51°28.479 2°40.991 241.3 11.19 243 -999
2008-09-12 10:13:20 51°28.464 2°40.947 241.3 11.19 243 -999
2008-09-12 10:13:30 51°28.45 2°40.903 241.3 11.19 243 -999
2008-09-12 10:13:40 51°28.435 2°40.86 241.3 11.19 243 -999
2008-09-12 10:13:50 51°28.419 2°40.818 241.3 11.19 243 -999
2008-09-12 10:14:00 51°28.403 2°40.775 238.5 11.19 239 -999
2008-09-12 10:14:10 51°28.388 2°40.733 238.5 11.19 239 -999
2008-09-12 10:14:20 51°28.372 2°40.69 238.5 11.19 239 -999
2008-09-12 10:14:30 51°28.357 2°40.648 238.5 11.19 239 -999
2008-09-12 10:14:40 51°28.341 2°40.606 238.5 11.19 239 -999
2008-09-12 10:14:50 51°28.326 2°40.563 238.5 11.19 239 -999
2008-09-12 10:15:00 51°28.31 2°40.52 238.6 11.09 240 -999
2008-09-12 10:15:10 51°28.295 2°40.478 238.6 11.09 240 -999
2008-09-12 10:15:20 51°28.28 2°40.435 238.6 11.09 240 -999
2008-09-12 10:15:30 51°28.264 2°40.393 238.6 11.09 240 -999
2008-09-12 10:15:40 51°28.249 2°40.35 238.6 11.09 240 -999
2008-09-12 10:15:50 51°28.234 2°40.308 238.6 11.09 240 -999
2008-09-12 10:16:00 51°28.22 2°40.265 239.4 11 240 -999
2008-09-12 10:16:10 51°28.205 2°40.222 239.4 11 240 -999
2008-09-12 10:16:20 51°28.19 2°40.179 239.4 11 240 -999
2008-09-12 10:16:30 51°28.175 2°40.136 239.4 11 240 -999
2008-09-12 10:16:40 51°28.16 2°40.093 239.4 11 240 -999
2008-09-12 10:16:50 51°28.146 2°40.05 239.4 11 240 -999
2008-09-12 10:17:00 51°28.131 2°40.007 240 11 241 -999
2008-09-12 10:17:10 51°28.116 2°39.964 240 11 241 -999
2008-09-12 10:17:20 51°28.102 2°39.921 240 11 241 -999
2008-09-12 10:17:30 51°28.087 2°39.878 240 11 241 -999
2008-09-12 10:17:40 51°28.074 2°39.834 240 11 241 -999
2008-09-12 10:17:50 51°28.06 2°39.791 240 11 241 -999
2008-09-12 10:18:00 51°28.045 2°39.748 240.8 11 243 -999
2008-09-12 10:18:10 51°28.03 2°39.705 240.8 11 243 -999
2008-09-12 10:18:20 51°28.015 2°39.662 240.8 11 243 -999
2008-09-12 10:18:30 51°28 2°39.619 240.8 11 243 -999
2008-09-12 10:18:40 51°27.985 2°39.576 240.8 11 243 -999
2008-09-12 10:18:50 51°27.972 2°39.538 240.8 11 243 -999
2008-09-12 10:19:00 51°27.956 2°39.491 239.4 11 242 -999
2008-09-12 10:19:10 51°27.942 2°39.448 239.4 11 242 -999
2008-09-12 10:19:20 51°27.927 2°39.406 239.4 11 242 -999
2008-09-12 10:19:30 51°27.913 2°39.363 239.4 11 242 -999
2008-09-12 10:19:40 51°27.898 2°39.32 239.4 11 242 -999
2008-09-12 10:19:50 51°27.883 2°39.277 239.4 11 242 -999
2008-09-12 10:20:00 51°27.87 2°39.233 240.6 11 244 -999
2008-09-12 10:20:10 51°27.856 2°39.189 240.6 11 244 -999
2008-09-12 10:20:20 51°27.843 2°39.146 240.6 11 244 -999
2008-09-12 10:20:30 51°27.83 2°39.101 240.6 11 244 -999
2008-09-12 10:20:40 51°27.817 2°39.056 240.6 11 244 -999
2008-09-12 10:20:50 51°27.805 2°39.011 240.6 11 244 -999
2008-09-12 10:21:00 51°27.793 2°38.966 244.9 11.09 248 -999
2008-09-12 10:21:10 51°27.78 2°38.921 244.9 11.09 248 -999
2008-09-12 10:21:20 51°27.768 2°38.876 244.9 11.09 248 -999
2008-09-12 10:21:30 51°27.756 2°38.831 244.9 11.09 248 -999
2008-09-12 10:21:40 51°27.743 2°38.787 244.9 11.09 248 -999
2008-09-12 10:21:50 51°27.73 2°38.742 244.9 11.09 248 -999
2008-09-12 10:22:00 51°27.717 2°38.697 243.5 11.09 246 -999
2008-09-12 10:22:10 51°27.704 2°38.653 243.5 11.09 246 -999
2008-09-12 10:22:20 51°27.692 2°38.608 243.5 11.09 246 -999
2008-09-12 10:22:30 51°27.679 2°38.564 243.5 11.09 246 -999
2008-09-12 10:22:40 51°27.666 2°38.519 243.5 11.09 246 -999
2008-09-12 10:22:50 51°27.653 2°38.475 243.5 11.09 246 -999
2008-09-12 10:23:00 51°27.639 2°38.432 241.5 11.09 243 -999
2008-09-12 10:23:10 51°27.626 2°38.393 241.5 11.09 243 -999
2008-09-12 10:23:20 51°27.61 2°38.346 241.5 11.09 243 -999
2008-09-12 10:23:30 51°27.595 2°38.302 241.5 11.09 243 -999
2008-09-12 10:23:40 51°27.583 2°38.263 241.5 11.09 243 -999
2008-09-12 10:23:50 51°27.567 2°38.216 241.5 11.09 243 -999
2008-09-12 10:24:00 51°27.552 2°38.173 240.3 11.09 242 -999
2008-09-12 10:24:10 51°27.539 2°38.129 240.3 11.09 242 -999
2008-09-12 10:24:20 51°27.527 2°38.084 240.3 11.09 242 -999
2008-09-12 10:24:30 51°27.514 2°38.039 240.3 11.09 242 -999
2008-09-12 10:24:40 51°27.501 2°37.994 240.3 11.09 242 -999
2008-09-12 10:24:50 51°27.489 2°37.95 240.3 11.09 242 -999
2008-09-12 10:25:00 51°27.477 2°37.905 244 11.09 247 -999
2008-09-12 10:25:10 51°27.464 2°37.86 244 11.09 247 -999
2008-09-12 10:25:20 51°27.451 2°37.815 244 11.09 247 -999
2008-09-12 10:25:30 51°27.438 2°37.771 244 11.09 247 -999
2008-09-12 10:25:40 51°27.425 2°37.727 244 11.09 247 -999
2008-09-12 10:25:50 51°27.41 2°37.684 244 11.09 247 -999
2008-09-12 10:26:00 51°27.396 2°37.641 240.3 11 243 -999
2008-09-12 10:26:10 51°27.382 2°37.597 240.3 11 243 -999
2008-09-12 10:26:20 51°27.368 2°37.554 240.3 11 243 -999
2008-09-12 10:26:30 51°27.355 2°37.509 240.3 11 243 -999
2008-09-12 10:26:40 51°27.342 2°37.465 240.3 11 243 -999
2008-09-12 10:26:50 51°27.329 2°37.421 240.3 11 243 -999
2008-09-12 10:27:00 51°27.317 2°37.376 243.8 11.09 247 -999
2008-09-12 10:27:10 51°27.304 2°37.331 243.8 11.09 247 -999
2008-09-12 10:27:20 51°27.291 2°37.287 243.8 11.09 247 -999
2008-09-12 10:27:30 51°27.278 2°37.243 243.8 11.09 247 -999
2008-09-12 10:27:40 51°27.265 2°37.199 243.8 11.09 247 -999
2008-09-12 10:27:50 51°27.253 2°37.16 243.8 11.09 247 -999
2008-09-12 10:28:00 51°27.239 2°37.111 243.3 11 244 -999
2008-09-12 10:28:10 51°27.226 2°37.067 243.3 11 244 -999
2008-09-12 10:28:20 51°27.216 2°37.026 243.3 11 244 -999
2008-09-12 10:28:30 51°27.203 2°36.977 243.3 11 244 -999
2008-09-12 10:28:40 51°27.19 2°36.933 243.3 11 244 -999
2008-09-12 10:28:50 51°27.178 2°36.889 243.3 11 244 -999
2008-09-12 10:29:00 51°27.165 2°36.845 243.4 10.9 245 -999
2008-09-12 10:29:10 51°27.152 2°36.801 243.4 10.9 245 -999
2008-09-12 10:29:20 51°27.139 2°36.757 243.4 10.9 245 -999
2008-09-12 10:29:30 51°27.127 2°36.712 243.4 10.9 245 -999
2008-09-12 10:29:40 51°27.116 2°36.672 243.4 10.9 245 -999
2008-09-12 10:29:50 51°27.104 2°36.629 243.4 10.9 245 -999
2008-09-12 10:30:00 51°27.089 2°36.581 243.1 10.8 246 -999
2008-09-12 10:30:10 51°27.077 2°36.537 243.1 10.8 246 -999
2008-09-12 10:30:20 51°27.065 2°36.493 243.1 10.8 246 -999
2008-09-12 10:30:30 51°27.053 2°36.454 243.1 10.8 246 -999
2008-09-12 10:30:40 51°27.041 2°36.41 243.1 10.8 246 -999
2008-09-12 10:30:50 51°27.027 2°36.361 243.1 10.8 246 -999
2008-09-12 10:31:00 51°27.015 2°36.317 244.1 10.8 246 -999
2008-09-12 10:31:10 51°27.003 2°36.273 244.1 10.8 246 -999
2008-09-12 10:31:20 51°26.991 2°36.229 244.1 10.8 246 -999
2008-09-12 10:31:30 51°26.978 2°36.185 244.1 10.8 246 -999
2008-09-12 10:31:40 51°26.967 2°36.145 244.1 10.8 246 -999
2008-09-12 10:31:50 51°26.953 2°36.096 244.1 10.8 246 -999
2008-09-12 10:32:00 51°26.94 2°36.052 244.3 11 244 -999
2008-09-12 10:32:10 51°26.928 2°36.008 244.3 11 244 -999
2008-09-12 10:32:20 51°26.917 2°35.963 244.3 11 244 -999
2008-09-12 10:32:30 51°26.907 2°35.922 244.3 11 244 -999
2008-09-12 10:32:40 51°26.895 2°35.876 244.3 11 244 -999
2008-09-12 10:32:50 51°26.883 2°35.826 244.3 11 244 -999
2008-09-12 10:33:00 51°26.871 2°35.782 247.3 10.9 247 -999
2008-09-12 10:33:10 51°26.86 2°35.736 247.3 10.9 247 -999
2008-09-12 10:33:20 51°26.848 2°35.691 247.3 10.9 247 -999
2008-09-12 10:33:30 51°26.837 2°35.646 247.3 10.9 247 -999
2008-09-12 10:33:40 51°26.825 2°35.601 247.3 10.9 247 -999
2008-09-12 10:33:50 51°26.814 2°35.561 247.3 10.9 247 -999
2008-09-12 10:34:00 51°26.801 2°35.511 246 11 247 -999
2008-09-12 10:34:10 51°26.789 2°35.466 246 11 247 -999
2008-09-12 10:34:20 51°26.778 2°35.426 246 11 247 -999
2008-09-12 10:34:30 51°26.766 2°35.381 246 11 247 -999
2008-09-12 10:34:40 51°26.751 2°35.333 246 11 247 -999
2008-09-12 10:34:50 51°26.738 2°35.289 246 11 247 -999
2008-09-12 10:35:00 51°26.725 2°35.244 243.5 11 246 -999
2008-09-12 10:35:10 51°26.713 2°35.204 243.5 11 246 -999
2008-09-12 10:35:20 51°26.701 2°35.159 243.5 11 246 -999
2008-09-12 10:35:30 51°26.688 2°35.109 243.5 11 246 -999
2008-09-12 10:35:40 51°26.676 2°35.064 243.5 11 246 -999
2008-09-12 10:35:50 51°26.665 2°35.023 243.5 11 246 -999
2008-09-12 10:36:00 51°26.652 2°34.979 245 11.09 246 -999
2008-09-12 10:36:10 51°26.639 2°34.934 245 11.09 246 -999
2008-09-12 10:36:20 51°26.626 2°34.889 245 11.09 246 -999
2008-09-12 10:36:30 51°26.613 2°34.844 245 11.09 246 -999
2008-09-12 10:36:40 51°26.599 2°34.795 245 11.09 246 -999
2008-09-12 10:36:50 51°26.588 2°34.754 245 11.09 246 -999
2008-09-12 10:37:00 51°26.576 2°34.71 245.6 11 246 -999
2008-09-12 10:37:10 51°26.564 2°34.664 245.6 11 246 -999
2008-09-12 10:37:20 51°26.55 2°34.615 245.6 11 246 -999
2008-09-12 10:37:30 51°26.538 2°34.57 245.6 11 246 -999
2008-09-12 10:37:40 51°26.526 2°34.53 245.6 11 246 -999
2008-09-12 10:37:50 51°26.512 2°34.486 245.6 11 246 -999
2008-09-12 10:38:00 51°26.498 2°34.442 241.4 11 244 -999
2008-09-12 10:38:10 51°26.483 2°34.399 241.4 11 244 -999
2008-09-12 10:38:20 51°26.467 2°34.351 241.4 11 244 -999
2008-09-12 10:38:30 51°26.453 2°34.307 241.4 11 244 -999
2008-09-12 10:38:40 51°26.44 2°34.263 241.4 11 244 -999
2008-09-12 10:38:50 51°26.427 2°34.224 241.4 11 244 -999
2008-09-12 10:39:00 51°26.412 2°34.176 243 10.9 241 -999
2008-09-12 10:39:10 51°26.399 2°34.132 243 10.9 241 -999
2008-09-12 10:39:20 51°26.386 2°34.088 243 10.9 241 -999
2008-09-12 10:39:30 51°26.372 2°34.044 243 10.9 241 -999
2008-09-12 10:39:40 51°26.36 2°34.005 243 10.9 241 -999
2008-09-12 10:39:50 51°26.346 2°33.961 243 10.9 241 -999
2008-09-12 10:40:00 51°26.333 2°33.917 243.3 11 244 -999
2008-09-12 10:40:10 51°26.321 2°33.873 243.3 11 244 -999
2008-09-12 10:40:20 51°26.307 2°33.824 243.3 11 244 -999
2008-09-12 10:40:30 51°26.295 2°33.779 243.3 11 244 -999
2008-09-12 10:40:40 51°26.285 2°33.738 243.3 11 244 -999
2008-09-12 10:40:50 51°26.273 2°33.693 243.3 11 244 -999
2008-09-12 10:41:00 51°26.26 2°33.645 245.1 11 246 -999
2008-09-12 10:41:10 51°26.247 2°33.601 245.1 11 246 -999
2008-09-12 10:41:20 51°26.234 2°33.557 245.1 11 246 -999
2008-09-12 10:41:30 51°26.222 2°33.518 245.1 11 246 -999
2008-09-12 10:41:40 51°26.208 2°33.474 245.1 11 246 -999
2008-09-12 10:41:50 51°26.195 2°33.431 245.1 11 246 -999
2008-09-12 10:42:00 51°26.181 2°33.383 243.3 10.9 243 -999
2008-09-12 10:42:10 51°26.169 2°33.344 243.3 10.9 243 -999
2008-09-12 10:42:20 51°26.157 2°33.3 243.3 10.9 243 -999
2008-09-12 10:42:30 51°26.144 2°33.256 243.3 10.9 243 -999
2008-09-12 10:42:40 51°26.13 2°33.207 243.3 10.9 243 -999
2008-09-12 10:42:50 51°26.117 2°33.163 243.3 10.9 243 -999
2008-09-12 10:43:00 51°26.106 2°33.124 243.5 10.9 246 -999
2008-09-12 10:43:10 51°26.094 2°33.079 243.5 10.9 246 -999
2008-09-12 10:43:20 51°26.082 2°33.029 243.5 10.9 246 -999
2008-09-12 10:43:30 51°26.071 2°32.984 243.5 10.9 246 -999
2008-09-12 10:43:40 51°26.06 2°32.943 243.5 10.9 246 -999
2008-09-12 10:43:50 51°26.048 2°32.898 243.5 10.9 246 -999
2008-09-12 10:44:00 51°26.037 2°32.853 245.9 11 248 -999
2008-09-12 10:44:10 51°26.024 2°32.804 245.9 11 248 -999
2008-09-12 10:44:20 51°26.014 2°32.763 245.9 11 248 -999
2008-09-12 10:44:30 51°26.002 2°32.718 245.9 11 248 -999
2008-09-12 10:44:40 51°25.991 2°32.672 245.9 11 248 -999
2008-09-12 10:44:50 51°25.977 2°32.623 245.9 11 248 -999
2008-09-12 10:45:00 51°25.966 2°32.584 244 10.9 244 -999
2008-09-12 10:45:10 51°25.952 2°32.54 244 10.9 244 -999
2008-09-12 10:45:20 51°25.939 2°32.496 244 10.9 244 -999
2008-09-12 10:45:30 51°25.925 2°32.448 244 10.9 244 -999
2008-09-12 10:45:40 51°25.914 2°32.408 244 10.9 244 -999
2008-09-12 10:45:50 51°25.9 2°32.364 244 10.9 244 -999
2008-09-12 10:46:00 51°25.887 2°32.32 242.6 10.9 244 -999
2008-09-12 10:46:10 51°25.875 2°32.276 242.6 10.9 244 -999
2008-09-12 10:46:20 51°25.861 2°32.228 242.6 10.9 244 -999
2008-09-12 10:46:30 51°25.849 2°32.188 242.6 10.9 244 -999
2008-09-12 10:46:40 51°25.836 2°32.144 242.6 10.9 244 -999